createdAt,value
2023-01-25T00:01:05.886Z,7.90
2023-01-25T00:03:35.073Z,9.70
2023-01-25T00:06:03.332Z,11.20
2023-01-25T00:08:31.190Z,10.80
2023-01-25T00:10:58.942Z,9.90
2023-01-25T00:13:27.039Z,11.13
2023-01-25T00:15:54.891Z,10.13
2023-01-25T00:18:22.765Z,10.37
2023-01-25T00:20:51.890Z,11.13
2023-01-25T00:23:19.680Z,11.27
2023-01-25T00:25:47.442Z,10.50
2023-01-25T00:28:15.222Z,10.57
2023-01-25T00:30:42.975Z,11.43
2023-01-25T00:33:39.800Z,10.73
2023-01-25T00:36:33.310Z,11.00
2023-01-25T00:39:01.492Z,9.20
2023-01-25T00:41:29.419Z,13.67
2023-01-25T00:43:57.671Z,10.97
2023-01-25T00:46:25.632Z,11.40
2023-01-25T00:48:55.515Z,11.60
2023-01-25T00:51:25.604Z,11.77
2023-01-25T00:53:53.381Z,11.70
2023-01-25T00:56:21.163Z,11.97
2023-01-25T00:58:48.983Z,11.80
2023-01-25T01:01:16.746Z,11.37
2023-01-25T01:03:44.585Z,12.60
2023-01-25T01:06:13.772Z,12.73
2023-01-25T01:08:43.602Z,13.43
2023-01-25T01:11:13.786Z,12.33
2023-01-25T01:13:41.645Z,11.80
2023-01-25T01:16:12.629Z,12.13
2023-01-25T01:18:42.755Z,11.20
2023-01-25T01:21:11.384Z,11.40
2023-01-25T01:23:40.053Z,10.77
2023-01-25T01:26:12.200Z,10.60
2023-01-25T01:28:40.269Z,12.90
2023-01-25T01:31:11.790Z,12.00
2023-01-25T01:33:39.717Z,10.60
2023-01-25T01:36:09.199Z,10.00
2023-01-25T01:38:37.163Z,10.20
2023-01-25T01:41:05.454Z,12.70
2023-01-25T01:43:35.215Z,10.17
2023-01-25T01:46:04.129Z,10.57
2023-01-25T01:48:37.523Z,10.63
2023-01-25T01:51:11.774Z,9.77
2023-01-25T01:53:42.174Z,10.53
2023-01-25T01:56:14.795Z,11.60
2023-01-25T01:58:45.089Z,13.13
2023-01-25T02:01:12.995Z,10.33
2023-01-25T02:03:41.467Z,10.07
2023-01-25T02:06:14.645Z,9.60
2023-01-25T02:08:43.901Z,10.23
2023-01-25T02:11:13.695Z,9.43
2023-01-25T02:13:42.883Z,9.30
2023-01-25T02:16:17.497Z,10.23
2023-01-25T02:18:45.400Z,9.33
2023-01-25T02:21:13.281Z,10.00
2023-01-25T02:23:48.375Z,9.27
2023-01-25T02:26:19.584Z,9.20
2023-01-25T02:28:53.110Z,9.00
2023-01-25T02:31:21.010Z,9.63
2023-01-25T02:33:48.961Z,8.80
2023-01-25T02:36:21.225Z,8.43
2023-01-25T02:38:54.238Z,10.33
2023-01-25T02:41:28.068Z,9.03
2023-01-25T02:43:56.218Z,10.20
2023-01-25T02:46:27.474Z,8.90
2023-01-25T02:48:56.044Z,9.83
2023-01-25T02:51:25.614Z,10.70
2023-01-25T02:53:53.644Z,9.00
2023-01-25T02:56:21.898Z,7.40
2023-01-25T02:58:51.206Z,9.33
2023-01-25T03:01:19.058Z,8.70
2023-01-25T03:03:46.813Z,10.53
2023-01-25T03:06:14.994Z,7.90
2023-01-25T03:08:43.080Z,9.77
2023-01-25T03:11:10.923Z,8.40
2023-01-25T03:13:38.815Z,9.60
2023-01-25T03:16:10.421Z,9.07
2023-01-25T03:18:38.849Z,8.50
2023-01-25T03:21:09.210Z,9.17
2023-01-25T03:23:37.254Z,8.00
2023-01-25T03:26:10.132Z,6.53
2023-01-25T03:28:38.442Z,10.33
2023-01-25T03:31:08.573Z,9.17
2023-01-25T03:33:36.452Z,8.53
2023-01-25T03:36:05.269Z,9.33
2023-01-25T03:38:33.763Z,8.60
2023-01-25T03:41:01.614Z,8.83
2023-01-25T03:43:29.579Z,8.77
2023-01-25T03:45:58.965Z,9.53
2023-01-25T03:48:29.241Z,8.83
2023-01-25T03:51:00.146Z,9.90
2023-01-25T03:53:29.677Z,8.93
2023-01-25T03:56:01.816Z,10.93
2023-01-25T03:58:30.043Z,9.10
2023-01-25T04:00:59.669Z,10.37
2023-01-25T04:03:31.254Z,9.10
2023-01-25T04:05:59.803Z,9.47
2023-01-25T04:08:27.953Z,9.77
2023-01-25T04:10:57.175Z,10.37
2023-01-25T04:13:26.115Z,11.03
2023-01-25T04:15:54.302Z,9.43
2023-01-25T04:18:22.784Z,11.33
2023-01-25T04:20:55.530Z,10.70
2023-01-25T04:23:23.970Z,9.47
2023-01-25T04:25:54.820Z,9.10
2023-01-25T04:28:22.942Z,9.67
2023-01-25T04:30:50.916Z,8.40
2023-01-25T04:33:18.775Z,10.83
2023-01-25T04:35:46.633Z,10.40
2023-01-25T04:38:16.070Z,9.30
2023-01-25T04:40:44.298Z,8.00
2023-01-25T04:43:14.282Z,9.50
2023-01-25T04:45:42.353Z,8.77
2023-01-25T04:48:12.265Z,9.23
2023-01-25T04:50:40.840Z,9.50
2023-01-25T04:53:09.542Z,9.00
2023-01-25T04:55:38.701Z,8.87
2023-01-25T04:58:06.546Z,8.90
2023-01-25T05:00:34.675Z,9.00
2023-01-25T05:03:03.555Z,10.40
2023-01-25T05:05:31.597Z,6.93
2023-01-25T05:07:59.379Z,7.60
2023-01-25T05:10:27.137Z,8.40
2023-01-25T05:12:56.324Z,8.90
2023-01-25T05:15:24.081Z,9.00
2023-01-25T05:17:51.934Z,7.73
2023-01-25T05:20:19.979Z,8.60
2023-01-25T05:22:47.798Z,11.20
2023-01-25T05:25:29.747Z,8.00
2023-01-25T05:27:58.910Z,7.40
2023-01-25T05:30:26.684Z,8.53
2023-01-25T05:32:54.519Z,7.43
2023-01-25T05:35:22.283Z,7.90
2023-01-25T05:37:50.072Z,9.33
2023-01-25T05:40:18.125Z,9.27
2023-01-25T05:42:45.860Z,7.53
2023-01-25T05:45:15.053Z,6.90
2023-01-25T05:47:42.834Z,8.63
2023-01-25T05:50:11.624Z,7.57
2023-01-25T05:52:39.417Z,8.07
2023-01-25T05:55:08.159Z,7.10
2023-01-25T05:57:36.204Z,8.53
2023-01-25T06:00:05.272Z,8.37
2023-01-25T06:02:34.543Z,7.47
2023-01-25T06:05:02.419Z,6.97
2023-01-25T06:07:30.415Z,9.33
2023-01-25T06:09:58.181Z,7.60
2023-01-25T06:12:25.921Z,7.20
2023-01-25T06:14:53.767Z,6.97
2023-01-25T06:17:21.694Z,7.27
2023-01-25T06:19:50.813Z,7.07
2023-01-25T06:22:18.595Z,7.37
2023-01-25T06:24:46.375Z,7.50
2023-01-25T06:27:14.174Z,4.63
2023-01-25T06:29:42.018Z,6.70
2023-01-25T06:32:09.890Z,6.03
2023-01-25T06:34:38.011Z,6.80
2023-01-25T06:37:07.104Z,6.47
2023-01-25T06:39:34.933Z,6.53
2023-01-25T06:42:02.719Z,5.33
2023-01-25T06:44:30.489Z,5.90
2023-01-25T06:46:58.676Z,5.80
2023-01-25T06:49:26.534Z,5.53
2023-01-25T06:51:54.320Z,5.67
2023-01-25T06:54:23.425Z,6.40
2023-01-25T06:56:51.234Z,5.90
2023-01-25T06:59:19.038Z,5.93
2023-01-25T07:01:46.864Z,6.30
2023-01-25T07:04:14.707Z,6.57
2023-01-25T07:06:42.511Z,6.87
2023-01-25T07:09:13.605Z,5.77
2023-01-25T07:11:42.724Z,5.77
2023-01-25T07:14:10.508Z,5.80
2023-01-25T07:16:38.539Z,6.00
2023-01-25T07:19:07.320Z,7.10
2023-01-25T07:21:35.169Z,6.77
2023-01-25T07:24:04.407Z,6.03
2023-01-25T07:26:32.521Z,5.07
2023-01-25T07:29:01.871Z,6.10
2023-01-25T07:31:29.964Z,5.60
2023-01-25T07:33:59.227Z,6.13
2023-01-25T07:36:27.318Z,5.43
2023-01-25T07:38:56.266Z,6.07
2023-01-25T07:41:25.090Z,6.57
2023-01-25T07:43:53.094Z,6.90
2023-01-25T07:46:23.608Z,5.30
2023-01-25T07:48:53.239Z,7.20
2023-01-25T07:51:29.889Z,5.80
2023-01-25T07:53:59.945Z,5.60
2023-01-25T07:56:30.255Z,6.23
2023-01-25T07:58:59.380Z,5.90
2023-01-25T08:01:29.686Z,5.50
2023-01-25T08:03:58.096Z,5.83
2023-01-25T08:06:30.553Z,6.80
2023-01-25T08:08:59.914Z,5.20
2023-01-25T08:11:30.055Z,5.80
2023-01-25T08:13:58.249Z,5.50
2023-01-25T08:16:28.169Z,4.50
2023-01-25T08:18:57.769Z,6.33
2023-01-25T08:21:29.843Z,5.47
2023-01-25T08:23:59.015Z,6.40
2023-01-25T08:26:27.735Z,5.87
2023-01-25T08:28:55.875Z,7.00
2023-01-25T08:31:25.951Z,6.40
2023-01-25T08:33:55.608Z,6.00
2023-01-25T08:36:27.245Z,5.50
2023-01-25T08:38:57.280Z,6.57
2023-01-25T08:41:25.692Z,5.97
2023-01-25T08:43:55.317Z,7.30
2023-01-25T08:46:24.752Z,6.43
2023-01-25T08:48:56.379Z,7.13
2023-01-25T08:51:25.734Z,7.07
2023-01-25T08:53:53.486Z,7.20
2023-01-25T08:56:21.968Z,8.40
2023-01-25T08:58:51.195Z,9.87
2023-01-25T09:01:20.750Z,7.57
2023-01-25T09:03:51.292Z,8.03
2023-01-25T09:06:21.233Z,7.90
2023-01-25T09:08:49.280Z,8.33
2023-01-25T09:11:18.700Z,6.60
2023-01-25T09:13:48.383Z,7.67
2023-01-25T09:16:18.453Z,6.60
2023-01-25T09:18:49.724Z,7.57
2023-01-25T09:21:21.310Z,5.70
2023-01-25T09:23:51.018Z,6.87
2023-01-25T09:26:25.663Z,7.00
2023-01-25T09:28:55.112Z,5.90
2023-01-25T09:31:25.033Z,6.30
2023-01-25T09:33:54.392Z,8.70
2023-01-25T09:36:23.527Z,7.00
2023-01-25T09:38:51.256Z,7.27
2023-01-25T09:41:34.481Z,8.60
2023-01-25T09:44:17.292Z,7.43
2023-01-25T09:46:48.861Z,7.23
2023-01-25T09:49:54.635Z,7.77
2023-01-25T09:52:38.669Z,7.80
2023-01-25T09:55:14.414Z,7.80
2023-01-25T09:57:44.074Z,8.80
2023-01-25T10:00:18.752Z,6.83
2023-01-25T10:02:53.688Z,7.50
2023-01-25T10:05:24.798Z,7.03
2023-01-25T10:07:59.320Z,7.10
2023-01-25T10:10:34.619Z,7.47
2023-01-25T10:13:03.839Z,7.00
2023-01-25T10:15:38.046Z,8.23
2023-01-25T10:18:18.082Z,10.43
2023-01-25T10:20:50.829Z,8.70
2023-01-25T10:23:53.734Z,8.10
2023-01-25T10:26:26.666Z,7.73
2023-01-25T10:29:00.696Z,8.70
2023-01-25T10:31:36.280Z,7.43
2023-01-25T10:34:16.005Z,6.23
2023-01-25T10:36:45.079Z,8.10
2023-01-25T10:39:14.229Z,7.40
2023-01-25T10:41:44.645Z,7.40
2023-01-25T10:44:25.697Z,8.60
2023-01-25T10:47:01.167Z,7.63
2023-01-25T10:49:36.457Z,8.20
2023-01-25T10:52:16.028Z,10.13
2023-01-25T10:54:45.236Z,6.83
2023-01-25T10:57:20.583Z,9.50
2023-01-25T10:59:51.946Z,7.20
2023-01-25T11:02:42.427Z,10.03
2023-01-25T11:05:34.789Z,10.10
2023-01-25T11:08:22.584Z,9.93
2023-01-25T11:10:53.468Z,9.80
2023-01-25T11:13:23.847Z,8.67
2023-01-25T11:15:54.019Z,10.97
2023-01-25T11:18:24.110Z,10.37
2023-01-25T11:21:07.889Z,10.60
2023-01-25T11:23:35.717Z,9.93
2023-01-25T11:26:16.191Z,8.50
2023-01-25T11:28:45.399Z,10.23
2023-01-25T11:31:15.473Z,9.20
2023-01-25T11:33:43.661Z,8.93
2023-01-25T11:36:22.877Z,9.90
2023-01-25T11:39:02.550Z,10.37
2023-01-25T11:41:39.587Z,7.17
2023-01-25T11:44:38.701Z,10.83
2023-01-25T11:47:23.264Z,10.33
2023-01-25T11:50:02.617Z,13.07
2023-01-25T11:52:39.784Z,13.57
2023-01-25T11:55:22.696Z,10.70
2023-01-25T11:58:04.703Z,13.27
2023-01-25T12:00:49.546Z,12.50
2023-01-25T12:03:51.029Z,12.23
2023-01-25T12:06:28.584Z,13.10
2023-01-25T12:09:21.011Z,11.40
2023-01-25T12:12:02.311Z,11.87
2023-01-25T12:14:43.634Z,13.90
2023-01-25T12:17:30.800Z,13.50
2023-01-25T12:20:14.435Z,13.23
2023-01-25T12:23:08.164Z,13.90
2023-01-25T12:25:46.404Z,13.23
2023-01-25T12:28:20.448Z,10.90
2023-01-25T12:30:55.077Z,13.30
2023-01-25T12:33:28.584Z,12.27
2023-01-25T12:36:02.142Z,12.63
2023-01-25T12:38:36.607Z,12.73
2023-01-25T12:41:09.467Z,11.33
2023-01-25T12:43:43.003Z,10.90
2023-01-25T12:46:18.962Z,11.70
2023-01-25T12:48:52.309Z,10.77
2023-01-25T12:51:22.648Z,10.47
2023-01-25T12:53:53.386Z,11.43
2023-01-25T12:56:43.936Z,10.37
2023-01-25T12:59:18.431Z,10.13
2023-01-25T13:01:52.498Z,11.17
2023-01-25T13:04:37.900Z,12.57
2023-01-25T13:07:16.869Z,11.40
2023-01-25T13:09:52.434Z,10.93
2023-01-25T13:12:20.738Z,11.47
2023-01-25T13:14:48.562Z,11.00
2023-01-25T13:17:31.665Z,10.77
2023-01-25T13:20:00.338Z,9.73
2023-01-25T13:22:58.528Z,10.83
2023-01-25T13:25:27.607Z,11.07
2023-01-25T13:28:41.790Z,12.10
2023-01-25T13:31:09.877Z,10.20
2023-01-25T13:33:39.052Z,11.20
2023-01-25T13:36:38.539Z,12.03
2023-01-25T13:39:39.570Z,11.67
2023-01-25T13:42:20.486Z,13.03
2023-01-25T13:44:51.866Z,11.33
2023-01-25T13:47:23.661Z,11.63
2023-01-25T13:49:57.706Z,10.87
2023-01-25T13:52:26.783Z,11.87
2023-01-25T13:54:57.642Z,12.20
2023-01-25T13:57:27.087Z,11.33
2023-01-25T14:00:10.572Z,12.30
2023-01-25T14:02:40.046Z,11.40
2023-01-25T14:05:19.764Z,11.57
2023-01-25T14:07:49.983Z,10.80
2023-01-25T14:10:23.565Z,14.67
2023-01-25T14:12:52.628Z,11.90
2023-01-25T14:15:23.753Z,11.03
2023-01-25T14:18:14.148Z,11.67
2023-01-25T14:20:46.026Z,13.10
2023-01-25T14:23:24.902Z,12.30
2023-01-25T14:25:54.722Z,11.43
2023-01-25T14:28:23.340Z,10.90
2023-01-25T14:30:54.640Z,15.48
2023-01-25T14:33:26.618Z,13.00
2023-01-25T14:36:03.522Z,11.70
2023-01-25T14:38:38.222Z,12.33
2023-01-25T14:41:13.348Z,10.57
2023-01-25T14:43:45.188Z,12.57
2023-01-25T14:46:24.185Z,10.60
2023-01-25T14:48:52.928Z,11.10
2023-01-25T14:51:28.196Z,12.20
2023-01-25T14:54:02.234Z,12.97
2023-01-25T14:56:42.375Z,12.50
2023-01-25T14:59:28.299Z,12.50
2023-01-25T15:01:59.061Z,10.53
2023-01-25T15:04:26.971Z,10.43
2023-01-25T15:06:59.074Z,11.50
2023-01-25T15:09:40.236Z,10.07
2023-01-25T15:12:29.436Z,10.03
2023-01-25T15:14:58.561Z,9.63
2023-01-25T15:17:44.317Z,9.57
2023-01-25T15:20:29.226Z,10.00
2023-01-25T15:23:00.976Z,10.50
2023-01-25T15:25:28.861Z,8.47
2023-01-25T15:27:56.638Z,10.30
2023-01-25T15:30:24.446Z,10.83
2023-01-25T15:32:52.251Z,8.97
2023-01-25T15:35:21.875Z,10.57
2023-01-25T15:37:50.071Z,10.87
2023-01-25T15:40:19.540Z,8.43
2023-01-25T15:42:47.248Z,10.23
2023-01-25T15:45:15.045Z,11.13
2023-01-25T15:47:42.859Z,10.70
2023-01-25T15:50:19.752Z,9.80
2023-01-25T15:52:48.222Z,10.47
2023-01-25T15:55:16.212Z,10.63
2023-01-25T15:57:46.790Z,8.77
2023-01-25T16:00:19.675Z,9.07
2023-01-25T16:02:47.641Z,9.50
2023-01-25T16:05:15.522Z,10.17
2023-01-25T16:07:45.023Z,9.17
2023-01-25T16:10:24.687Z,9.30
2023-01-25T16:12:53.846Z,9.37
2023-01-25T16:15:21.583Z,9.10
2023-01-25T16:17:49.360Z,8.40
2023-01-25T16:20:20.191Z,6.70
2023-01-25T16:22:48.135Z,8.50
2023-01-25T16:25:16.064Z,7.60
2023-01-25T16:27:43.860Z,7.37
2023-01-25T16:30:20.117Z,7.53
2023-01-25T16:32:50.027Z,7.57
2023-01-25T16:35:18.138Z,7.67
2023-01-25T16:37:45.989Z,8.13
2023-01-25T16:40:23.641Z,9.10
2023-01-25T16:42:51.725Z,7.47
2023-01-25T16:45:20.856Z,8.23
2023-01-25T16:47:48.898Z,7.17
2023-01-25T16:50:19.407Z,7.73
2023-01-25T16:52:49.840Z,7.57
2023-01-25T16:55:18.850Z,7.63
2023-01-25T16:57:50.862Z,8.33
2023-01-25T17:00:20.756Z,10.32
2023-01-25T17:02:58.612Z,8.77
2023-01-25T17:05:28.865Z,11.15
2023-01-25T17:07:56.644Z,9.70
2023-01-25T17:10:24.702Z,9.00
2023-01-25T17:12:52.468Z,8.53
2023-01-25T17:15:21.600Z,8.70
2023-01-25T17:17:50.641Z,7.97
2023-01-25T17:20:18.478Z,8.60
2023-01-25T17:22:50.890Z,8.40
2023-01-25T17:25:18.794Z,8.60
2023-01-25T17:27:46.910Z,8.77
2023-01-25T17:30:15.349Z,8.30
2023-01-25T17:32:44.696Z,9.80
2023-01-25T17:35:12.483Z,9.13
2023-01-25T17:37:41.029Z,8.67
2023-01-25T17:40:11.245Z,8.93
2023-01-25T17:42:39.227Z,9.30
2023-01-25T17:45:08.711Z,7.47
2023-01-25T17:47:36.702Z,8.10
2023-01-25T17:50:06.503Z,8.77
2023-01-25T17:52:34.729Z,8.83
2023-01-25T17:55:03.623Z,8.57
2023-01-25T17:57:31.524Z,7.97
2023-01-25T18:00:02.311Z,8.00
2023-01-25T18:02:30.140Z,9.60
2023-01-25T18:04:57.928Z,8.70
2023-01-25T18:07:27.120Z,8.33
2023-01-25T18:09:54.866Z,8.90
2023-01-25T18:12:22.603Z,7.83
2023-01-25T18:14:50.330Z,8.33
2023-01-25T18:17:18.120Z,9.10
2023-01-25T18:19:46.027Z,8.13
2023-01-25T18:22:14.780Z,8.10
2023-01-25T18:24:45.084Z,8.53
2023-01-25T18:27:20.146Z,7.93
2023-01-25T18:29:54.747Z,7.83
2023-01-25T18:32:22.864Z,7.70
2023-01-25T18:34:50.674Z,8.20
2023-01-25T18:37:20.323Z,8.17
2023-01-25T18:39:51.451Z,8.30
2023-01-25T18:42:19.752Z,6.90
2023-01-25T18:44:49.047Z,7.47
2023-01-25T18:47:18.429Z,6.80
2023-01-25T18:49:46.563Z,8.00
2023-01-25T18:52:14.346Z,7.20
2023-01-25T18:54:42.144Z,8.37
2023-01-25T18:57:12.038Z,7.63
2023-01-25T18:59:39.922Z,8.20
2023-01-25T19:02:08.745Z,7.53
2023-01-25T19:04:36.495Z,6.30
2023-01-25T19:07:04.672Z,7.20
2023-01-25T19:09:32.756Z,7.70
2023-01-25T19:12:00.628Z,7.97
2023-01-25T19:14:29.770Z,8.73
2023-01-25T19:16:57.683Z,7.80
2023-01-25T19:19:31.622Z,8.10
2023-01-25T19:21:59.427Z,7.80
2023-01-25T19:24:27.606Z,8.03
2023-01-25T19:26:55.512Z,7.80
2023-01-25T19:29:23.352Z,7.90
2023-01-25T19:31:52.465Z,8.03
2023-01-25T19:34:20.321Z,7.97
2023-01-25T19:36:49.948Z,7.50
2023-01-25T19:39:18.953Z,8.33
2023-01-25T19:41:46.849Z,9.00
2023-01-25T19:44:15.520Z,8.00
2023-01-25T19:46:43.906Z,8.23
2023-01-25T19:49:14.399Z,8.90
2023-01-25T19:51:45.421Z,7.53
2023-01-25T19:54:16.632Z,8.60
2023-01-25T19:56:45.759Z,7.10
2023-01-25T19:59:15.266Z,6.93
2023-01-25T20:01:43.759Z,8.00
2023-01-25T20:04:14.151Z,7.67
2023-01-25T20:06:41.960Z,7.77
2023-01-25T20:09:12.051Z,7.47
2023-01-25T20:11:39.939Z,8.53
2023-01-25T20:14:12.396Z,9.30
2023-01-25T20:16:40.217Z,7.83
2023-01-25T20:19:08.067Z,7.57
2023-01-25T20:21:39.454Z,6.30
2023-01-25T20:24:09.669Z,7.73
2023-01-25T20:26:39.576Z,6.73
2023-01-25T20:29:08.302Z,7.03
2023-01-25T20:31:38.074Z,7.17
2023-01-25T20:34:07.915Z,7.60
2023-01-25T20:36:37.523Z,7.57
2023-01-25T20:39:06.235Z,7.23
2023-01-25T20:41:34.245Z,8.20
2023-01-25T20:44:07.125Z,8.50
2023-01-25T20:46:37.145Z,7.27
2023-01-25T20:49:06.246Z,7.40
2023-01-25T20:51:34.960Z,7.87
2023-01-25T20:54:04.219Z,7.20
2023-01-25T20:56:32.654Z,7.20
2023-01-25T20:59:00.450Z,7.20
2023-01-25T21:01:30.420Z,7.63
2023-01-25T21:03:58.912Z,7.73
2023-01-25T21:06:28.585Z,7.90
2023-01-25T21:08:56.417Z,6.63
2023-01-25T21:11:25.966Z,8.73
2023-01-25T21:13:54.854Z,6.60
2023-01-25T21:16:23.726Z,7.80
2023-01-25T21:18:54.419Z,6.37
2023-01-25T21:21:23.622Z,7.37
2023-01-25T21:23:51.841Z,7.67
2023-01-25T21:26:21.799Z,7.00
2023-01-25T21:28:52.169Z,8.07
2023-01-25T21:31:21.888Z,8.07
2023-01-25T21:33:50.366Z,7.40
2023-01-25T21:36:19.386Z,7.57
2023-01-25T21:38:48.844Z,7.93
2023-01-25T21:41:19.744Z,7.70
2023-01-25T21:44:05.205Z,7.43
2023-01-25T21:46:34.639Z,9.07
2023-01-25T21:49:22.288Z,8.27
2023-01-25T21:51:51.703Z,7.43
2023-01-25T21:54:21.292Z,7.50
2023-01-25T21:56:51.000Z,7.63
2023-01-25T21:59:19.078Z,7.93
2023-01-25T22:01:48.801Z,8.17
2023-01-25T22:04:18.369Z,7.27
2023-01-25T22:06:48.436Z,7.50
2023-01-25T22:09:16.567Z,7.50
2023-01-25T22:11:45.751Z,6.83
2023-01-25T22:14:14.081Z,8.07
2023-01-25T22:16:41.875Z,7.17
2023-01-25T22:19:11.032Z,7.23
2023-01-25T22:21:38.875Z,7.97
2023-01-25T22:24:08.086Z,8.20
2023-01-25T22:26:47.034Z,7.60
2023-01-25T22:29:14.925Z,6.80
2023-01-25T22:31:43.171Z,6.67
2023-01-25T22:34:13.007Z,7.43
2023-01-25T22:36:40.798Z,7.07
2023-01-25T22:39:08.655Z,6.70
2023-01-25T22:41:38.184Z,7.47
2023-01-25T22:44:06.423Z,6.13
2023-01-25T22:46:34.676Z,5.67
2023-01-25T22:49:02.643Z,5.97
2023-01-25T22:51:32.739Z,6.50
2023-01-25T22:54:00.883Z,6.30
2023-01-25T22:56:30.192Z,6.47
2023-01-25T23:01:40.086Z,6.40
2023-01-25T23:04:07.910Z,7.70
2023-01-25T23:06:37.719Z,7.30
2023-01-25T23:09:07.313Z,7.37
2023-01-25T23:11:38.263Z,6.30
2023-01-25T23:14:25.160Z,7.40
2023-01-25T23:16:53.185Z,7.70
2023-01-25T23:19:20.014Z,7.47
2023-01-25T23:21:49.107Z,7.60
2023-01-25T23:24:17.039Z,8.10
2023-01-25T23:26:46.059Z,7.57
2023-01-25T23:29:14.536Z,7.27
2023-01-25T23:31:42.925Z,7.90
2023-01-25T23:34:12.775Z,7.57
2023-01-25T23:36:42.126Z,8.93
2023-01-25T23:39:14.086Z,6.97
2023-01-25T23:41:41.824Z,7.10
2023-01-25T23:44:10.045Z,7.40
2023-01-25T23:46:37.889Z,7.93
2023-01-25T23:49:05.719Z,7.60
2023-01-25T23:51:33.450Z,6.67
2023-01-25T23:54:01.191Z,8.00
2023-01-25T23:56:30.359Z,6.40
2023-01-25T23:58:58.917Z,7.47
